Time;durP1;ratioP1;P1;durP2;ratioP2;P2;SDS_P1;SDS_P2;PMS_P1;PMS_P2;Temp;Humidity;BMP_temperature;BMP_pressure;BME280_temperature;BME280_humidity;BME280_pressure;Samples;Min_cycle;Max_cycle;Signal;HPM_P1;HPM_P2
2023/06/22 00:01:13;;;;;;;20.97;17.70;;;;;;;20.26;86.90;101364.00;4956795;28;20505;-72
2023/06/22 00:03:43;;;;;;;18.73;16.93;;;;;;;20.35;86.32;101363.31;4958386;28;20410;-72
2023/06/22 00:06:13;;;;;;;18.63;16.80;;;;;;;20.44;86.48;101365.63;4953526;28;20450;-72
2023/06/22 00:08:43;;;;;;;18.70;16.90;;;;;;;20.29;85.85;101358.81;4956064;28;20449;-73
2023/06/22 00:11:12;;;;;;;19.77;18.00;;;;;;;20.33;86.92;101362.75;4973960;22;20401;-70
2023/06/22 00:13:41;;;;;;;17.47;15.77;;;;;;;20.12;86.40;101371.78;4957648;28;20790;-71
2023/06/22 00:16:10;;;;;;;15.77;14.27;;;;;;;20.15;86.28;101362.19;4953502;28;20423;-70
2023/06/22 00:18:39;;;;;;;16.90;15.30;;;;;;;20.06;86.54;101374.72;4941290;28;20435;-72
2023/06/22 00:21:12;;;;;;;18.03;16.23;;;;;;;19.92;87.61;101374.25;4940941;28;20422;-71
2023/06/22 00:23:41;;;;;;;18.77;17.00;;;;;;;19.93;88.25;101384.16;4941973;28;20432;-72
2023/06/22 00:26:11;;;;;;;18.40;16.57;;;;;;;20.07;86.85;101390.94;4938250;28;20479;-72
2023/06/22 00:28:40;;;;;;;16.77;15.10;;;;;;;20.18;87.91;101394.69;4941350;28;20892;-71
2023/06/22 00:31:09;;;;;;;17.83;16.23;;;;;;;20.18;88.20;101398.25;4945307;28;20411;-71
2023/06/22 00:33:38;;;;;;;17.10;15.40;;;;;;;20.07;88.05;101390.94;4942164;28;20500;-70
2023/06/22 00:36:13;;;;;;;18.47;16.47;;;;;;;19.97;87.95;101388.06;4938214;28;20458;-69
2023/06/22 00:38:42;;;;;;;17.10;15.60;;;;;;;19.92;88.09;101391.56;4939719;28;20504;-71
2023/06/22 00:41:11;;;;;;;17.70;15.80;;;;;;;19.96;89.20;101391.88;4939899;28;20436;-72
2023/06/22 00:43:40;;;;;;;16.80;14.60;;;;;;;20.01;89.25;101394.69;4938960;28;20765;-73
2023/06/22 00:46:10;;;;;;;16.90;15.27;;;;;;;20.08;88.60;101400.03;4940384;28;20459;-71
2023/06/22 00:48:41;;;;;;;18.00;15.30;;;;;;;20.13;87.75;101392.69;4943610;29;20464;-70
2023/06/22 00:51:12;;;;;;;19.63;16.10;;;;;;;19.76;89.43;101392.41;4937798;28;20414;-72
2023/06/22 00:53:43;;;;;;;17.80;15.93;;;;;;;19.74;90.08;101394.59;4949869;28;20444;-71
2023/06/22 00:56:13;;;;;;;18.70;17.00;;;;;;;19.55;90.27;101395.09;4936180;28;20834;-70
2023/06/22 00:58:42;;;;;;;19.57;17.67;;;;;;;19.74;90.47;101391.00;4941063;28;20403;-71
2023/06/22 01:01:11;;;;;;;17.47;15.87;;;;;;;19.64;90.34;101391.66;4941584;28;20486;-71
2023/06/22 01:03:41;;;;;;;15.33;13.83;;;;;;;19.87;89.88;101405.22;4936255;28;20520;-71
2023/06/22 01:06:16;;;;;;;18.27;15.60;;;;;;;19.73;90.52;101405.81;4940736;28;21012;-72
2023/06/22 01:08:52;;;;;;;17.17;15.43;;;;;;;19.83;90.23;101400.47;4945437;28;20475;-71
2023/06/22 01:11:25;;;;;;;19.90;15.87;;;;;;;19.63;91.81;101397.41;4944400;28;20496;-70
2023/06/22 01:14:05;;;;;;;17.57;15.97;;;;;;;19.52;91.70;101408.22;4943287;28;20451;-72
2023/06/22 01:16:36;;;;;;;18.27;16.67;;;;;;;19.72;92.12;101410.47;4939574;28;20484;-72
2023/06/22 01:19:21;;;;;;;18.70;16.70;;;;;;;19.52;92.33;101408.22;4935759;28;20433;-68
2023/06/22 01:21:54;;;;;;;18.87;17.10;;;;;;;19.47;92.17;101405.38;4937456;28;20419;-69
2023/06/22 01:24:29;;;;;;;17.37;15.87;;;;;;;19.33;93.21;101406.75;4940091;28;21037;-70
2023/06/22 01:27:09;;;;;;;17.83;16.20;;;;;;;19.29;93.40;101408.34;4943359;28;20456;-71
2023/06/22 01:29:42;;;;;;;19.03;17.23;;;;;;;19.32;93.54;101402.34;4945697;28;20490;-72
2023/06/22 01:32:13;;;;;;;17.43;15.63;;;;;;;19.23;93.79;101403.81;4934261;28;20460;-70
2023/06/22 01:34:43;;;;;;;17.40;15.80;;;;;;;19.20;94.44;101409.81;4943532;28;20727;-71
2023/06/22 01:37:13;;;;;;;17.63;15.83;;;;;;;19.19;94.26;101413.63;4944464;28;20425;-70
2023/06/22 01:39:43;;;;;;;23.53;16.50;;;;;;;19.09;95.11;101407.97;4951358;28;20952;-73
2023/06/22 01:42:12;;;;;;;17.20;15.37;;;;;;;19.10;95.08;101420.59;4944751;28;20452;-71
2023/06/22 01:44:44;;;;;;;19.30;17.27;;;;;;;19.06;95.51;101423.00;4953107;28;20540;-72
2023/06/22 01:47:14;;;;;;;18.50;15.87;;;;;;;19.05;95.39;101421.34;4944516;28;20474;-70
2023/06/22 01:49:45;;;;;;;17.30;15.70;;;;;;;18.96;96.36;101419.22;4943334;28;20503;-72
2023/06/22 01:52:15;;;;;;;20.07;18.20;;;;;;;18.91;97.17;101421.88;4937596;28;20415;-73
2023/06/22 01:54:43;;;;;;;18.17;16.57;;;;;;;19.00;97.46;101418.50;4967872;28;20498;-70
2023/06/22 01:57:13;;;;;;;17.50;15.73;;;;;;;18.99;97.30;101421.47;4949121;28;20434;-72
2023/06/22 01:59:51;;;;;;;25.03;17.37;;;;;;;19.04;96.43;101418.81;4943469;28;20415;-70
2023/06/22 02:02:29;;;;;;;18.93;17.00;;;;;;;19.00;97.33;101420.41;4963155;28;20456;-71
2023/06/22 02:05:04;;;;;;;20.43;18.53;;;;;;;18.88;97.46;101417.69;4942870;28;20850;-73
2023/06/22 02:07:50;;;;;;;18.83;16.90;;;;;;;19.03;97.49;101419.91;4942781;28;20431;-71
2023/06/22 02:10:22;;;;;;;19.33;17.53;;;;;;;19.00;96.98;101423.16;4943615;28;20477;-71
2023/06/22 02:12:52;;;;;;;18.57;16.77;;;;;;;18.88;97.88;101427.84;4946593;28;20938;-71
2023/06/22 02:15:23;;;;;;;19.73;17.63;;;;;;;18.82;98.51;101424.19;4947821;28;20455;-70
2023/06/22 02:17:56;;;;;;;17.00;15.40;;;;;;;18.85;98.77;101428.31;4945332;28;20458;-68
2023/06/22 02:20:26;;;;;;;17.67;15.97;;;;;;;18.79;98.95;101430.13;4942293;28;20406;-69
2023/06/22 02:22:57;;;;;;;20.30;16.60;;;;;;;19.07;100.00;101426.59;4951055;28;20407;-73
2023/06/22 02:25:26;;;;;;;18.43;16.63;;;;;;;19.08;98.33;101428.22;4950535;28;20412;-71
2023/06/22 02:27:55;;;;;;;18.27;16.57;;;;;;;19.23;96.51;101435.91;4957671;28;20435;-70
2023/06/22 02:30:26;;;;;;;17.70;16.00;;;;;;;18.99;97.79;101440.69;4951693;28;20466;-71
2023/06/22 02:32:58;;;;;;;17.90;16.10;;;;;;;19.05;98.25;101446.03;4943102;28;20476;-70
2023/06/22 02:35:31;;;;;;;19.13;17.33;;;;;;;19.24;97.80;101441.16;4939641;28;20410;-71
2023/06/22 02:38:00;;;;;;;17.67;16.00;;;;;;;19.40;96.55;101448.59;4942234;28;20431;-69
2023/06/22 02:40:30;;;;;;;20.00;18.00;;;;;;;19.13;97.79;101444.78;4943513;28;20817;-71
2023/06/22 02:43:02;;;;;;;25.27;22.87;;;;;;;19.07;98.62;101438.38;4938363;28;20415;-71
2023/06/22 02:45:33;;;;;;;20.97;18.77;;;;;;;19.22;97.69;101443.31;4941897;28;20428;-72
2023/06/22 02:48:02;;;;;;;24.90;22.40;;;;;;;19.27;96.57;101448.88;4944769;28;20472;-71
2023/06/22 02:50:31;;;;;;;22.27;19.90;;;;;;;19.32;96.43;101445.41;4937302;28;20469;-71
2023/06/22 02:53:01;;;;;;;21.13;18.57;;;;;;;19.36;96.28;101441.94;4938410;28;20522;-70
2023/06/22 02:55:33;;;;;;;24.70;22.20;;;;;;;19.31;96.81;101435.53;4937667;28;20440;-70
2023/06/22 02:58:04;;;;;;;21.50;19.50;;;;;;;19.40;96.57;101425.81;4948957;28;20919;-71
2023/06/22 03:00:39;;;;;;;21.97;19.80;;;;;;;19.36;96.64;101420.00;4938376;28;20436;-71
2023/06/22 03:03:08;;;;;;;21.20;19.20;;;;;;;19.37;97.10;101429.88;4940939;28;20978;-70
2023/06/22 03:05:37;;;;;;;22.27;20.27;;;;;;;19.32;97.41;101417.97;4945099;28;21050;-71
2023/06/22 03:08:06;;;;;;;21.17;19.00;;;;;;;19.31;97.67;101408.94;4941004;28;20444;-71
2023/06/22 03:10:36;;;;;;;23.10;20.80;;;;;;;19.35;97.56;101412.00;4932747;28;20517;-71
2023/06/22 03:13:06;;;;;;;22.47;20.10;;;;;;;19.39;97.77;101414.00;4935993;28;20448;-70
2023/06/22 03:15:35;;;;;;;20.67;18.67;;;;;;;19.44;97.81;101416.03;4957899;28;20449;-71
2023/06/22 03:18:05;;;;;;;23.53;21.00;;;;;;;19.50;97.72;101415.03;4947023;28;20925;-71
2023/06/22 03:20:34;;;;;;;23.13;20.73;;;;;;;19.49;97.97;101408.72;4941434;28;20441;-71
2023/06/22 03:23:04;;;;;;;21.63;19.53;;;;;;;19.58;97.09;101405.56;4942293;28;20727;-72
2023/06/22 03:25:34;;;;;;;23.83;21.53;;;;;;;19.61;96.60;101410.53;4941705;29;20415;-72
2023/06/22 03:28:04;;;;;;;21.73;19.63;;;;;;;19.62;96.48;101412.19;4934475;28;20507;-71
2023/06/22 03:30:33;;;;;;;22.70;20.50;;;;;;;19.63;95.97;101405.63;4937809;28;20476;-70
2023/06/22 03:33:02;;;;;;;21.80;19.70;;;;;;;19.63;95.34;101406.47;4945014;28;20795;-72
2023/06/22 03:35:32;;;;;;;23.07;20.57;;;;;;;19.70;94.71;101409.91;4937410;28;20472;-71
2023/06/22 03:38:01;;;;;;;21.70;19.50;;;;;;;19.76;94.35;101417.13;4941343;28;20423;-70
2023/06/22 03:40:32;;;;;;;21.20;19.03;;;;;;;20.20;91.08;101426.31;4950631;28;20826;-70
2023/06/22 03:43:02;;;;;;;24.83;22.40;;;;;;;20.52;89.12;101415.50;4945041;28;20427;-71
2023/06/22 03:45:31;;;;;;;22.77;20.57;;;;;;;21.18;85.47;101411.63;4944004;28;20446;-70
2023/06/22 03:48:01;;;;;;;21.10;18.97;;;;;;;21.48;81.83;101411.09;4940059;28;20534;-70
2023/06/22 03:50:30;;;;;;;20.87;18.97;;;;;;;21.86;80.25;101403.66;4935702;28;20442;-71
2023/06/22 03:53:01;;;;;;;17.87;16.10;;;;;;;22.13;77.12;101406.34;4936799;28;20858;-69
2023/06/22 03:55:31;;;;;;;18.13;16.23;;;;;;;22.36;75.71;101406.78;4934454;28;20419;-72
2023/06/22 03:58:05;;;;;;;17.47;14.60;;;;;;;22.37;74.40;101407.56;4942085;28;20518;-70
2023/06/22 04:00:34;;;;;;;16.93;15.33;;;;;;;22.24;74.41;101405.31;4935397;28;20402;-71
2023/06/22 04:03:03;;;;;;;16.97;15.20;;;;;;;22.36;73.34;101404.00;4944899;28;20430;-71
2023/06/22 04:05:32;;;;;;;18.97;15.00;;;;;;;22.96;71.25;101413.63;4943762;28;20478;-71
2023/06/22 04:08:03;;;;;;;14.60;12.80;;;;;;;23.19;68.81;101418.66;4943080;28;20501;-71
2023/06/22 04:10:32;;;;;;;14.57;13.13;;;;;;;23.47;67.40;101416.53;4945782;28;20466;-71
2023/06/22 04:13:01;;;;;;;14.60;13.10;;;;;;;24.24;65.34;101418.97;4952341;28;20419;-71
2023/06/22 04:15:30;;;;;;;15.13;13.63;;;;;;;24.25;63.61;101420.63;4940492;28;20438;-71
2023/06/22 04:17:59;;;;;;;14.10;12.70;;;;;;;24.30;63.52;101425.31;4939802;28;20491;-71
2023/06/22 04:20:29;;;;;;;13.20;11.80;;;;;;;24.54;62.83;101427.19;4941468;28;20412;-71
2023/06/22 04:22:58;;;;;;;15.47;13.63;;;;;;;24.79;61.87;101425.38;4940176;28;20442;-73
2023/06/22 04:25:28;;;;;;;15.67;13.70;;;;;;;24.74;62.05;101431.78;4937979;28;20403;-71
2023/06/22 04:27:57;;;;;;;14.13;12.87;;;;;;;25.03;61.34;101434.72;4945465;28;20517;-71
2023/06/22 04:30:26;;;;;;;13.77;12.33;;;;;;;25.51;59.09;101435.78;4941352;28;20453;-71
2023/06/22 04:32:57;;;;;;;17.27;13.30;;;;;;;25.52;58.53;101438.25;4936997;28;20422;-72
2023/06/22 04:35:28;;;;;;;12.53;11.33;;;;;;;25.40;59.53;101445.28;4939986;28;20418;-71
2023/06/22 04:38:00;;;;;;;16.00;14.27;;;;;;;25.39;58.74;101449.16;4933862;29;20451;-69
2023/06/22 04:40:30;;;;;;;16.93;12.40;;;;;;;25.21;59.71;101447.91;4943057;28;20438;-69
2023/06/22 04:43:02;;;;;;;15.07;13.57;;;;;;;25.72;57.89;101451.16;4937761;28;20452;-72
2023/06/22 04:45:31;;;;;;;14.83;12.83;;;;;;;26.07;56.71;101449.19;4942998;28;20493;-70
2023/06/22 04:48:00;;;;;;;14.00;12.47;;;;;;;26.13;57.04;101454.41;4938513;28;20522;-72
2023/06/22 04:50:29;;;;;;;14.20;12.70;;;;;;;26.63;55.11;101447.47;4933193;28;20905;-70
2023/06/22 04:52:58;;;;;;;11.80;10.77;;;;;;;26.94;54.12;101450.72;4939100;28;20534;-72
2023/06/22 04:55:29;;;;;;;13.97;12.57;;;;;;;27.22;52.75;101460.06;4940134;28;20958;-70
2023/06/22 04:58:04;;;;;;;13.43;12.13;;;;;;;27.35;52.73;101458.50;4942954;28;21013;-70
2023/06/22 05:00:36;;;;;;;12.57;11.43;;;;;;;27.67;51.23;101455.78;4939396;28;20473;-71
2023/06/22 05:03:06;;;;;;;11.40;10.30;;;;;;;27.74;50.81;101453.44;4934277;28;20437;-71
2023/06/22 05:05:47;;;;;;;13.40;11.63;;;;;;;26.73;52.94;101452.06;4935233;28;20411;-71
2023/06/22 05:08:17;;;;;;;11.93;10.23;;;;;;;26.54;53.43;101456.75;4940294;28;20524;-71
2023/06/22 05:10:48;;;;;;;11.87;10.80;;;;;;;26.83;51.80;101451.94;4942828;28;21014;-71
2023/06/22 05:13:33;;;;;;;10.10;9.10;;;;;;;27.40;50.67;101444.53;4944594;29;20578;-73
2023/06/22 05:16:03;;;;;;;12.23;7.87;;;;;;;28.18;47.91;101452.97;4935543;28;20448;-71
2023/06/22 05:18:32;;;;;;;9.20;7.73;;;;;;;28.45;46.56;101452.19;4940203;28;20428;-70
2023/06/22 05:21:01;;;;;;;9.83;7.87;;;;;;;26.62;50.27;101448.63;4933833;28;20776;-68
2023/06/22 05:23:30;;;;;;;9.80;7.50;;;;;;;25.61;53.43;101448.78;4933292;28;20813;-69
2023/06/22 05:26:03;;;;;;;10.83;8.47;;;;;;;25.67;52.69;101450.38;4937580;28;20431;-68
2023/06/22 05:28:33;;;;;;;8.60;7.37;;;;;;;26.49;50.44;101454.03;4939612;28;20444;-71
2023/06/22 05:31:03;;;;;;;7.57;6.77;;;;;;;26.74;49.28;101459.28;4942577;28;20476;-70
2023/06/22 05:33:33;;;;;;;7.27;6.57;;;;;;;25.47;52.13;101465.19;4935552;28;20931;-72
2023/06/22 05:36:02;;;;;;;9.67;6.67;;;;;;;25.76;51.61;101455.00;4936488;28;20458;-70
2023/06/22 05:38:31;;;;;;;6.20;5.60;;;;;;;24.97;53.39;101450.53;4939280;28;20431;-71
2023/06/22 05:41:01;;;;;;;7.47;6.63;;;;;;;24.35;55.08;101456.53;4939393;28;20500;-71
2023/06/22 05:43:30;;;;;;;5.93;5.43;;;;;;;24.18;54.72;101465.16;4945526;28;20431;-69
2023/06/22 05:46:02;;;;;;;8.97;5.90;;;;;;;23.90;55.38;101457.41;4960197;28;20436;-70
2023/06/22 05:48:31;;;;;;;6.80;5.20;;;;;;;24.24;54.80;101460.44;4947724;28;20439;-74
2023/06/22 05:51:01;;;;;;;5.70;5.20;;;;;;;24.37;54.02;101476.47;4946145;28;20427;-72
2023/06/22 05:53:30;;;;;;;6.13;5.50;;;;;;;24.42;55.11;101484.75;4939737;28;20860;-72
2023/06/22 05:56:00;;;;;;;5.87;5.30;;;;;;;24.56;52.87;101485.81;4942151;28;20475;-71
2023/06/22 05:58:30;;;;;;;9.33;4.50;;;;;;;24.58;52.77;101486.38;4937666;28;20491;-72
2023/06/22 06:01:00;;;;;;;5.30;4.80;;;;;;;24.65;53.24;101484.13;4945973;28;20448;-71
2023/06/22 06:03:29;;;;;;;7.23;6.03;;;;;;;24.72;53.07;101485.78;4940202;28;20958;-71
2023/06/22 06:05:58;;;;;;;7.90;5.97;;;;;;;25.03;52.30;101487.31;4939814;28;21032;-72
2023/06/22 06:08:27;;;;;;;9.53;5.57;;;;;;;25.04;51.97;101483.44;4932907;28;20441;-72
2023/06/22 06:10:57;;;;;;;6.87;5.23;;;;;;;24.99;52.45;101486.22;4937328;28;20446;-72
2023/06/22 06:13:45;;;;;;;8.27;4.93;;;;;;;24.74;52.57;101491.88;4951769;23;20530;-72
2023/06/22 06:16:15;;;;;;;6.60;5.70;;;;;;;24.76;53.33;101486.84;4958297;28;20845;-72
2023/06/22 06:18:48;;;;;;;5.97;5.33;;;;;;;24.90;53.01;101480.47;4941272;29;20434;-72
2023/06/22 06:21:18;;;;;;;5.40;4.40;;;;;;;25.03;52.28;101463.22;4951216;29;20445;-73
2023/06/22 06:23:49;;;;;;;6.10;5.50;;;;;;;24.74;53.47;101475.25;4950565;29;20479;-72
2023/06/22 06:26:18;;;;;;;8.17;5.23;;;;;;;24.68;53.63;101475.28;4941609;29;20563;-72
2023/06/22 06:28:48;;;;;;;10.13;5.67;;;;;;;24.38;54.05;101469.81;4938923;29;20487;-72
2023/06/22 06:31:18;;;;;;;9.60;6.00;;;;;;;24.30;54.48;101475.09;4940989;29;20428;-72
2023/06/22 06:33:49;;;;;;;8.33;6.03;;;;;;;24.51;54.03;101468.41;4935049;29;20801;-73
2023/06/22 06:36:21;;;;;;;5.80;5.20;;;;;;;24.88;53.92;101484.63;4933813;29;20500;-72
2023/06/22 06:38:51;;;;;;;6.13;5.53;;;;;;;24.72;53.70;101480.22;4934370;29;20492;-72
2023/06/22 06:41:22;;;;;;;9.57;6.37;;;;;;;24.61;53.99;101480.28;4944228;28;20778;-71
2023/06/22 06:43:52;;;;;;;6.07;5.50;;;;;;;24.77;54.05;101491.28;4936339;29;20420;-71
2023/06/22 06:46:22;;;;;;;6.97;5.07;;;;;;;25.04;52.72;101487.03;4943819;28;20510;-71
2023/06/22 06:48:51;;;;;;;6.40;5.70;;;;;;;25.26;53.33;101483.91;4935888;29;20487;-74
2023/06/22 06:51:20;;;;;;;5.83;5.30;;;;;;;25.49;51.64;101491.50;4936490;29;20432;-72
2023/06/22 06:53:51;;;;;;;9.63;6.70;;;;;;;25.15;52.29;101485.06;4931956;29;20460;-73
2023/06/22 06:56:20;;;;;;;11.53;5.73;;;;;;;25.35;52.46;101475.81;4935958;29;20443;-70
2023/06/22 06:58:53;;;;;;;9.33;5.93;;;;;;;25.66;51.22;101476.47;4929566;29;20493;-72
2023/06/22 07:01:22;;;;;;;9.00;5.60;;;;;;;25.76;50.53;101470.81;4935737;29;20437;-72
2023/06/22 07:03:51;;;;;;;5.53;4.80;;;;;;;25.49;50.76;101474.88;4931710;29;20460;-72
2023/06/22 07:06:20;;;;;;;7.67;4.63;;;;;;;25.78;49.78;101466.63;4944821;28;20854;-74
2023/06/22 07:08:50;;;;;;;7.33;5.30;;;;;;;25.78;49.50;101468.59;4938602;29;20432;-73
2023/06/22 07:11:19;;;;;;;7.00;4.77;;;;;;;25.79;48.98;101459.16;4942055;29;20763;-71
2023/06/22 07:13:48;;;;;;;5.70;5.20;;;;;;;25.78;48.63;101454.72;4933672;29;20472;-72
2023/06/22 07:16:19;;;;;;;8.37;5.93;;;;;;;26.13;48.21;101454.41;4936152;29;20492;-71
2023/06/22 07:18:48;;;;;;;4.97;4.27;;;;;;;26.42;48.51;101445.25;4934079;29;20535;-72
2023/06/22 07:21:17;;;;;;;8.70;5.93;;;;;;;26.36;47.80;101448.09;4933913;29;20528;-72
2023/06/22 07:23:46;;;;;;;7.57;5.63;;;;;;;26.14;48.47;101444.16;4935585;29;20433;-73
2023/06/22 07:26:16;;;;;;;6.47;4.80;;;;;;;26.15;48.76;101438.28;4927103;29;20464;-71
2023/06/22 07:28:45;;;;;;;6.63;4.67;;;;;;;26.25;48.23;101445.69;4943859;29;20800;-72
2023/06/22 07:31:14;;;;;;;6.40;5.30;;;;;;;26.41;47.05;101440.81;4930611;28;20890;-73
2023/06/22 07:33:45;;;;;;;5.33;4.70;;;;;;;26.15;47.28;101446.59;4936760;29;20986;-73
2023/06/22 07:36:14;;;;;;;4.67;4.27;;;;;;;26.10;48.05;101441.09;4934503;29;20828;-73
2023/06/22 07:38:44;;;;;;;5.03;3.90;;;;;;;26.13;46.47;101437.75;4939796;29;20448;-73
2023/06/22 07:41:13;;;;;;;6.30;5.70;;;;;;;26.16;46.15;101442.72;4938687;28;20420;-72
2023/06/22 07:43:43;;;;;;;4.37;3.97;;;;;;;26.41;45.68;101429.72;4934433;29;20407;-72
2023/06/22 07:46:12;;;;;;;5.50;4.30;;;;;;;26.67;45.57;101436.63;4931542;29;20500;-71
2023/06/22 07:48:46;;;;;;;4.20;3.17;;;;;;;26.83;43.01;101430.56;4936129;29;20495;-73
2023/06/22 07:51:15;;;;;;;5.60;4.13;;;;;;;26.90;42.82;101438.56;4928357;29;20769;-73
2023/06/22 07:53:44;;;;;;;6.63;3.83;;;;;;;27.47;42.01;101442.19;4944298;29;20467;-72
2023/06/22 07:56:18;;;;;;;4.03;3.13;;;;;;;27.12;40.09;101437.97;4938074;29;20475;-72
2023/06/22 07:58:48;;;;;;;4.60;2.83;;;;;;;27.04;40.05;101436.72;4936006;29;20552;-72
2023/06/22 08:01:20;;;;;;;5.00;3.77;;;;;;;26.90;40.42;101429.41;4932921;29;20461;-72
2023/06/22 08:03:51;;;;;;;3.50;3.20;;;;;;;26.49;41.55;101426.28;4931003;29;20457;-72
2023/06/22 08:06:21;;;;;;;4.07;3.60;;;;;;;26.49;42.24;101423.50;4938926;29;20427;-71
2023/06/22 08:08:52;;;;;;;9.93;3.93;;;;;;;26.75;40.76;101430.41;4934331;29;20967;-73
2023/06/22 08:11:25;;;;;;;3.77;3.00;;;;;;;27.06;40.83;101434.44;4940545;29;20438;-70
2023/06/22 08:13:55;;;;;;;4.30;3.60;;;;;;;27.46;39.51;101427.44;4933048;29;20881;-71
2023/06/22 08:16:25;;;;;;;4.70;3.40;;;;;;;27.74;38.49;101433.16;4930558;29;20439;-71
2023/06/22 08:18:57;;;;;;;3.50;3.20;;;;;;;27.65;39.29;101430.22;4932415;29;20532;-71
2023/06/22 08:21:26;;;;;;;7.57;3.17;;;;;;;27.82;38.55;101427.72;4931218;29;21002;-72
2023/06/22 08:23:55;;;;;;;5.53;3.53;;;;;;;27.64;39.42;101434.97;4932096;29;20437;-71
2023/06/22 08:26:24;;;;;;;6.07;4.50;;;;;;;27.69;40.04;101434.09;4933648;29;20488;-72
2023/06/22 08:28:54;;;;;;;7.47;3.77;;;;;;;27.75;39.90;101435.63;4930397;29;20821;-71
2023/06/22 08:31:24;;;;;;;4.50;3.10;;;;;;;27.43;39.78;101427.25;4932832;29;22005;-71
2023/06/22 08:33:53;;;;;;;5.13;3.40;;;;;;;27.26;39.97;101444.44;4928455;29;20561;-70
2023/06/22 08:36:23;;;;;;;5.23;3.80;;;;;;;27.27;40.74;101431.38;4931535;29;20463;-70
2023/06/22 08:38:53;;;;;;;4.30;3.77;;;;;;;27.22;40.68;101433.09;4930999;29;20424;-70
2023/06/22 08:41:21;;;;;;;5.73;4.40;;;;;;;27.18;40.76;101429.28;4934547;28;20439;-70
2023/06/22 08:43:50;;;;;;;7.40;3.20;;;;;;;26.99;41.04;101425.66;4931103;29;20435;-71
2023/06/22 08:46:23;;;;;;;5.20;3.70;;;;;;;27.09;40.64;101428.31;4931517;28;20804;-72
2023/06/22 08:48:52;;;;;;;4.63;3.17;;;;;;;27.03;40.91;101423.94;4932134;29;20425;-71
2023/06/22 08:51:22;;;;;;;4.87;3.57;;;;;;;27.07;41.04;101425.00;4932098;29;20536;-72
2023/06/22 08:53:51;;;;;;;9.80;4.43;;;;;;;27.03;41.12;101434.22;4929212;29;20472;-72
2023/06/22 08:56:20;;;;;;;3.90;3.50;;;;;;;27.15;40.76;101427.13;4931863;29;20555;-72
2023/06/22 08:58:50;;;;;;;3.97;3.43;;;;;;;27.32;40.10;101431.28;4932331;29;20441;-73
2023/06/22 09:01:21;;;;;;;5.43;3.83;;;;;;;27.51;40.25;101434.91;4930282;29;20441;-71
2023/06/22 09:03:54;;;;;;;5.30;3.57;;;;;;;27.59;40.48;101428.69;4932690;29;20461;-72
2023/06/22 09:06:25;;;;;;;4.67;4.00;;;;;;;27.53;40.54;101427.94;4931040;29;20479;-72
2023/06/22 09:08:54;;;;;;;7.43;3.63;;;;;;;27.73;40.62;101421.22;4932043;29;20450;-71
2023/06/22 09:11:23;;;;;;;5.53;3.90;;;;;;;28.01;40.86;101427.66;4931629;29;20941;-71
2023/06/22 09:13:53;;;;;;;5.67;4.50;;;;;;;28.45;40.77;101421.56;4929026;29;20465;-70
2023/06/22 09:16:22;;;;;;;5.73;4.90;;;;;;;29.00;39.73;101418.75;4929355;29;20461;-71
2023/06/22 09:18:52;;;;;;;4.40;4.00;;;;;;;29.23;38.50;101414.88;4929115;29;20476;-71
2023/06/22 09:21:21;;;;;;;4.77;4.17;;;;;;;29.43;38.49;101425.56;4931882;29;20433;-71
2023/06/22 09:23:52;;;;;;;4.80;4.37;;;;;;;28.75;39.13;101429.31;4933085;29;20431;-73
2023/06/22 09:26:22;;;;;;;4.63;4.00;;;;;;;28.21;39.52;101421.75;4928974;29;20986;-71
2023/06/22 09:28:51;;;;;;;6.07;3.93;;;;;;;28.65;39.43;101421.16;4928788;29;20425;-72
2023/06/22 09:31:25;;;;;;;5.50;5.00;;;;;;;28.85;39.23;101411.56;4931237;29;20432;-71
2023/06/22 09:33:55;;;;;;;5.07;4.00;;;;;;;28.83;38.53;101417.44;4932324;29;20468;-72
2023/06/22 09:36:24;;;;;;;6.20;4.40;;;;;;;28.61;39.24;101414.53;4934535;29;20448;-69
2023/06/22 09:38:58;;;;;;;5.43;3.70;;;;;;;28.36;38.78;101412.28;4935289;28;20453;-69
2023/06/22 09:41:27;;;;;;;5.03;4.10;;;;;;;28.37;38.85;101405.59;4926067;29;20482;-73
2023/06/22 09:43:56;;;;;;;6.17;4.13;;;;;;;28.06;39.44;101403.38;4924250;29;20431;-72
2023/06/22 09:46:26;;;;;;;4.23;3.70;;;;;;;27.97;39.88;101396.88;4924626;29;20464;-72
2023/06/22 09:48:55;;;;;;;6.93;3.83;;;;;;;28.34;37.28;101400.63;4924958;29;20461;-71
2023/06/22 09:51:24;;;;;;;4.60;3.50;;;;;;;28.27;37.39;101400.22;4925052;29;20436;-72
2023/06/22 09:53:55;;;;;;;4.53;4.10;;;;;;;28.23;38.85;101404.72;4924885;29;20480;-73
2023/06/22 09:56:24;;;;;;;5.43;4.80;;;;;;;28.19;38.77;101398.13;4924368;29;20463;-73
2023/06/22 09:58:56;;;;;;;4.47;3.80;;;;;;;28.43;39.11;101401.53;4926484;29;20441;-72
2023/06/22 10:05:55;;;;;;;4.57;4.07;;;;;;;28.88;37.83;101408.97;4915539;28;21333;-73
2023/06/22 10:08:25;;;;;;;6.00;4.47;;;;;;;29.05;36.81;101402.72;4925962;29;20464;-72
2023/06/22 10:10:56;;;;;;;5.57;4.53;;;;;;;28.86;37.81;101413.19;4925727;29;21171;-73
2023/06/22 10:13:25;;;;;;;5.47;4.17;;;;;;;29.11;37.07;101406.22;4916901;29;21152;-72
2023/06/22 10:15:54;;;;;;;4.70;4.30;;;;;;;28.82;38.13;101404.63;4915480;29;20512;-73
2023/06/22 10:18:23;;;;;;;7.77;3.70;;;;;;;29.04;37.54;101397.47;4921095;29;20484;-73
2023/06/22 10:20:53;;;;;;;4.77;4.27;;;;;;;28.74;37.99;101408.16;4924983;29;20960;-74
2023/06/22 10:23:22;;;;;;;5.80;4.33;;;;;;;28.76;37.96;101403.09;4923627;29;20456;-72
2023/06/22 10:25:51;;;;;;;5.07;4.53;;;;;;;29.16;37.71;101395.78;4924743;29;20432;-73
2023/06/22 10:28:22;;;;;;;5.50;5.00;;;;;;;29.01;37.56;101395.31;4927287;29;20462;-72
2023/06/22 10:30:51;;;;;;;7.60;4.90;;;;;;;28.71;38.56;101392.06;4937285;29;20435;-73
2023/06/22 10:33:20;;;;;;;5.57;5.00;;;;;;;28.66;38.60;101392.13;4928303;29;20794;-72
2023/06/22 10:35:49;;;;;;;7.00;5.27;;;;;;;28.54;38.73;101391.84;4935053;29;20514;-73
2023/06/22 10:38:18;;;;;;;7.20;6.50;;;;;;;28.63;39.19;101381.63;4928753;29;20877;-74
2023/06/22 10:40:47;;;;;;;5.57;4.87;;;;;;;28.54;39.01;101375.16;4927915;29;20803;-73
2023/06/22 10:43:16;;;;;;;5.30;4.70;;;;;;;28.21;39.75;101376.41;4924677;29;21003;-73
2023/06/22 10:45:47;;;;;;;8.87;5.00;;;;;;;28.32;39.72;101386.22;4930366;29;20420;-71
2023/06/22 10:48:16;;;;;;;5.73;4.33;;;;;;;28.16;39.83;101373.72;4931683;29;20436;-72
2023/06/22 10:50:45;;;;;;;5.70;4.93;;;;;;;28.25;39.80;101374.66;4929098;29;20491;-73
2023/06/22 10:53:14;;;;;;;5.43;4.47;;;;;;;28.26;39.73;101367.97;4928939;29;20486;-73
2023/06/22 10:55:43;;;;;;;4.87;4.37;;;;;;;28.43;39.47;101365.34;4930061;29;20513;-74
2023/06/22 10:58:25;;;;;;;5.00;4.50;;;;;;;28.34;39.00;101364.44;4920663;29;20444;-73
2023/06/22 11:00:55;;;;;;;4.23;3.83;;;;;;;27.81;39.61;101355.72;4924204;29;20781;-73
2023/06/22 11:03:24;;;;;;;6.33;4.60;;;;;;;27.65;39.62;101352.38;4924447;29;20504;-72
2023/06/22 11:05:54;;;;;;;6.20;4.73;;;;;;;27.70;40.05;101355.06;4924013;29;20433;-73
2023/06/22 11:08:24;;;;;;;5.10;4.53;;;;;;;27.96;39.38;101345.13;4923754;29;20828;-73
2023/06/22 11:10:53;;;;;;;6.20;5.70;;;;;;;28.37;39.64;101352.72;4915863;29;20935;-73
2023/06/22 11:13:22;;;;;;;5.75;5.25;;;;;;;28.84;38.91;101343.06;4880454;29;1319908;-73
2023/06/22 11:15:52;;;;;;;5.70;5.20;;;;;;;29.16;37.70;101348.41;4925701;29;20279;-72
2023/06/22 11:18:23;;;;;;;8.33;5.37;;;;;;;29.27;38.41;101354.56;4925210;29;20939;-72
2023/06/22 11:20:52;;;;;;;5.50;5.00;;;;;;;29.24;37.34;101346.84;4927676;29;20605;-73
2023/06/22 11:23:22;;;;;;;7.47;5.00;;;;;;;29.01;37.82;101345.16;4925484;29;20488;-73
2023/06/22 11:25:51;;;;;;;5.40;4.90;;;;;;;29.03;37.72;101338.13;4918766;29;20531;-72
2023/06/22 11:28:20;;;;;;;7.77;5.67;;;;;;;29.07;37.33;101328.00;4921424;29;20437;-72
2023/06/22 11:30:50;;;;;;;5.17;4.40;;;;;;;28.99;37.62;101323.19;4922629;29;21043;-73
2023/06/22 11:33:19;;;;;;;6.93;5.90;;;;;;;28.80;37.25;101325.31;4923195;29;21000;-72
2023/06/22 11:35:49;;;;;;;5.40;4.90;;;;;;;28.50;37.91;101319.28;4924563;29;21823;-72